Pukalani, Hawaii
Current Conditions -  °F | °C
As of 9:54 AM on Saturday 20 Dec 2014 (Local Time) from PHOG Reporting Station
Few Clouds Few Clouds  
Wind Chill: 79°   Ceiling: Unl
Heat Index: 81°   Visibility: 10mi
Dew Point: 63°   Wind: 5mph
Humidity: 58%   Direction: 170°S
Pressure: 30.05"   Gusts: NA
Location:  20.83°N, 156.32°W
Report Text: PHOG 201954Z 17004KT 10SM FEW045 26/17 A3005 RMK AO2 SLP181 T02610172 $
Loading
Personal Weather Stations






























Interactive Weather Map New forecast layout! Learn more

10-Day Weather Forecast

Advertisements
Track Severe Weather on mobile